sensor_id;sensor_type;location;lat;lon;timestamp;temperature;humidity
68251;DHT22;55066;51.560;4.642;2024-01-10T00:01:43;-5.03;90.47
68251;DHT22;55066;51.560;4.642;2024-01-10T00:04:09;-4.92;90.68
68251;DHT22;55066;51.560;4.642;2024-01-10T00:06:34;-4.95;90.93
68251;DHT22;55066;51.560;4.642;2024-01-10T00:09:00;-4.97;93.97
68251;DHT22;55066;51.560;4.642;2024-01-10T00:11:27;-5.09;92.48
68251;DHT22;55066;51.560;4.642;2024-01-10T00:13:53;-5.05;92.86
68251;DHT22;55066;51.560;4.642;2024-01-10T00:16:25;-5.02;94.16
68251;DHT22;55066;51.560;4.642;2024-01-10T00:18:51;-5.05;94.26
68251;DHT22;55066;51.560;4.642;2024-01-10T00:21:17;-4.86;91.95
68251;DHT22;55066;51.560;4.642;2024-01-10T00:23:44;-4.99;91.42
68251;DHT22;55066;51.560;4.642;2024-01-10T00:26:10;-5.13;90.51
68251;DHT22;55066;51.560;4.642;2024-01-10T00:28:35;-5.17;91.34
68251;DHT22;55066;51.560;4.642;2024-01-10T00:31:01;-5.34;92.55
68251;DHT22;55066;51.560;4.642;2024-01-10T00:33:26;-5.44;95.03
68251;DHT22;55066;51.560;4.642;2024-01-10T00:35:52;-5.33;93.85
68251;DHT22;55066;51.560;4.642;2024-01-10T00:38:19;-5.28;93.80
68251;DHT22;55066;51.560;4.642;2024-01-10T00:40:44;-5.43;95.20
68251;DHT22;55066;51.560;4.642;2024-01-10T00:43:09;-5.51;95.76
68251;DHT22;55066;51.560;4.642;2024-01-10T00:45:35;-5.46;94.49
68251;DHT22;55066;51.560;4.642;2024-01-10T00:48:01;-5.58;94.98
68251;DHT22;55066;51.560;4.642;2024-01-10T00:50:26;-5.57;96.71
68251;DHT22;55066;51.560;4.642;2024-01-10T00:52:52;-5.64;99.99
68251;DHT22;55066;51.560;4.642;2024-01-10T00:55:17;-5.62;98.47
68251;DHT22;55066;51.560;4.642;2024-01-10T00:57:43;-5.58;98.67
68251;DHT22;55066;51.560;4.642;2024-01-10T01:00:09;-5.68;98.00
68251;DHT22;55066;51.560;4.642;2024-01-10T01:02:36;-5.74;98.41
68251;DHT22;55066;51.560;4.642;2024-01-10T01:05:02;-5.77;99.99
68251;DHT22;55066;51.560;4.642;2024-01-10T01:07:28;-5.95;99.99
68251;DHT22;55066;51.560;4.642;2024-01-10T01:09:53;-5.78;98.76
68251;DHT22;55066;51.560;4.642;2024-01-10T01:12:19;-5.67;96.71
68251;DHT22;55066;51.560;4.642;2024-01-10T01:14:45;-5.71;98.06
68251;DHT22;55066;51.560;4.642;2024-01-10T01:17:12;-5.68;99.48
68251;DHT22;55066;51.560;4.642;2024-01-10T01:19:39;-5.65;96.05
68251;DHT22;55066;51.560;4.642;2024-01-10T01:22:04;-5.67;96.92
68251;DHT22;55066;51.560;4.642;2024-01-10T01:24:30;-5.72;96.22
68251;DHT22;55066;51.560;4.642;2024-01-10T01:26:56;-5.69;96.73
68251;DHT22;55066;51.560;4.642;2024-01-10T01:29:21;-5.47;95.79
68251;DHT22;55066;51.560;4.642;2024-01-10T01:31:47;-5.40;93.94
68251;DHT22;55066;51.560;4.642;2024-01-10T01:34:13;-5.44;93.18
68251;DHT22;55066;51.560;4.642;2024-01-10T01:36:38;-5.28;94.93
68251;DHT22;55066;51.560;4.642;2024-01-10T01:39:03;-5.41;92.65
68251;DHT22;55066;51.560;4.642;2024-01-10T01:41:29;-5.46;93.56
68251;DHT22;55066;51.560;4.642;2024-01-10T01:43:54;-5.41;94.90
68251;DHT22;55066;51.560;4.642;2024-01-10T01:46:20;-5.27;96.04
68251;DHT22;55066;51.560;4.642;2024-01-10T01:48:46;-5.22;93.08
68251;DHT22;55066;51.560;4.642;2024-01-10T01:51:14;-5.26;93.31
68251;DHT22;55066;51.560;4.642;2024-01-10T01:53:40;-5.19;93.51
68251;DHT22;55066;51.560;4.642;2024-01-10T01:56:07;-5.19;94.01
68251;DHT22;55066;51.560;4.642;2024-01-10T01:58:33;-5.20;93.10
68251;DHT22;55066;51.560;4.642;2024-01-10T02:00:59;-5.35;93.67
68251;DHT22;55066;51.560;4.642;2024-01-10T02:03:26;-5.46;94.61
68251;DHT22;55066;51.560;4.642;2024-01-10T02:05:52;-5.31;93.46
68251;DHT22;55066;51.560;4.642;2024-01-10T02:08:18;-5.19;94.40
68251;DHT22;55066;51.560;4.642;2024-01-10T02:10:43;-5.22;94.18
68251;DHT22;55066;51.560;4.642;2024-01-10T02:13:09;-5.23;94.36
68251;DHT22;55066;51.560;4.642;2024-01-10T02:15:37;-5.33;93.63
68251;DHT22;55066;51.560;4.642;2024-01-10T02:18:03;-5.30;94.65
68251;DHT22;55066;51.560;4.642;2024-01-10T02:20:31;-5.20;93.52
68251;DHT22;55066;51.560;4.642;2024-01-10T02:22:56;-5.10;91.95
68251;DHT22;55066;51.560;4.642;2024-01-10T02:25:21;-5.26;94.17
68251;DHT22;55066;51.560;4.642;2024-01-10T02:27:47;-5.37;93.87
68251;DHT22;55066;51.560;4.642;2024-01-10T02:30:13;-5.24;92.83
68251;DHT22;55066;51.560;4.642;2024-01-10T02:32:39;-5.19;94.05
68251;DHT22;55066;51.560;4.642;2024-01-10T02:35:05;-5.34;93.79
68251;DHT22;55066;51.560;4.642;2024-01-10T02:37:30;-5.35;97.93
68251;DHT22;55066;51.560;4.642;2024-01-10T02:39:56;-5.41;95.72
68251;DHT22;55066;51.560;4.642;2024-01-10T02:42:21;-5.41;94.63
68251;DHT22;55066;51.560;4.642;2024-01-10T02:44:47;-5.40;94.44
68251;DHT22;55066;51.560;4.642;2024-01-10T02:47:13;-5.44;94.91
68251;DHT22;55066;51.560;4.642;2024-01-10T02:49:38;-5.47;93.95
68251;DHT22;55066;51.560;4.642;2024-01-10T02:52:04;-5.54;95.00
68251;DHT22;55066;51.560;4.642;2024-01-10T02:54:30;-5.52;96.19
68251;DHT22;55066;51.560;4.642;2024-01-10T02:56:55;-5.62;96.24
68251;DHT22;55066;51.560;4.642;2024-01-10T02:59:21;-5.52;94.36
68251;DHT22;55066;51.560;4.642;2024-01-10T03:01:46;-5.60;95.42
68251;DHT22;55066;51.560;4.642;2024-01-10T03:04:12;-5.65;97.79
68251;DHT22;55066;51.560;4.642;2024-01-10T03:06:37;-5.60;96.22
68251;DHT22;55066;51.560;4.642;2024-01-10T03:09:02;-5.60;96.09
68251;DHT22;55066;51.560;4.642;2024-01-10T03:11:28;-5.60;97.03
68251;DHT22;55066;51.560;4.642;2024-01-10T03:14:07;-5.54;96.27
68251;DHT22;55066;51.560;4.642;2024-01-10T03:16:33;-5.62;96.10
68251;DHT22;55066;51.560;4.642;2024-01-10T03:18:58;-5.58;95.77
68251;DHT22;55066;51.560;4.642;2024-01-10T03:21:24;-5.55;96.79
68251;DHT22;55066;51.560;4.642;2024-01-10T03:23:56;-5.58;97.13
68251;DHT22;55066;51.560;4.642;2024-01-10T03:26:22;-5.62;97.27
68251;DHT22;55066;51.560;4.642;2024-01-10T03:28:48;-5.55;95.81
68251;DHT22;55066;51.560;4.642;2024-01-10T03:31:16;-5.64;97.31
68251;DHT22;55066;51.560;4.642;2024-01-10T03:33:41;-5.61;98.31
68251;DHT22;55066;51.560;4.642;2024-01-10T03:36:11;-5.64;95.94
68251;DHT22;55066;51.560;4.642;2024-01-10T03:38:36;-5.64;97.00
68251;DHT22;55066;51.560;4.642;2024-01-10T03:41:02;-5.62;96.86
68251;DHT22;55066;51.560;4.642;2024-01-10T03:43:27;-5.51;96.00
68251;DHT22;55066;51.560;4.642;2024-01-10T03:45:53;-5.72;96.68
68251;DHT22;55066;51.560;4.642;2024-01-10T03:48:19;-5.77;96.21
68251;DHT22;55066;51.560;4.642;2024-01-10T03:50:44;-5.64;96.54
68251;DHT22;55066;51.560;4.642;2024-01-10T03:53:10;-5.60;97.72
68251;DHT22;55066;51.560;4.642;2024-01-10T03:55:37;-5.64;97.26
68251;DHT22;55066;51.560;4.642;2024-01-10T03:58:04;-5.71;97.15
68251;DHT22;55066;51.560;4.642;2024-01-10T04:00:29;-5.68;97.59
68251;DHT22;55066;51.560;4.642;2024-01-10T04:02:55;-5.68;96.95
68251;DHT22;55066;51.560;4.642;2024-01-10T04:05:21;-5.77;98.11
68251;DHT22;55066;51.560;4.642;2024-01-10T04:07:47;-5.82;98.30
68251;DHT22;55066;51.560;4.642;2024-01-10T04:10:13;-5.62;98.78
68251;DHT22;55066;51.560;4.642;2024-01-10T04:12:42;-5.61;98.53
68251;DHT22;55066;51.560;4.642;2024-01-10T04:15:08;-5.81;98.66
68251;DHT22;55066;51.560;4.642;2024-01-10T04:17:35;-5.77;97.73
68251;DHT22;55066;51.560;4.642;2024-01-10T04:20:01;-5.77;99.01
68251;DHT22;55066;51.560;4.642;2024-01-10T04:22:26;-5.72;97.79
68251;DHT22;55066;51.560;4.642;2024-01-10T04:24:52;-5.72;97.33
68251;DHT22;55066;51.560;4.642;2024-01-10T04:27:17;-5.85;98.32
68251;DHT22;55066;51.560;4.642;2024-01-10T04:29:47;-5.90;99.46
68251;DHT22;55066;51.560;4.642;2024-01-10T04:32:13;-6.09;99.70
68251;DHT22;55066;51.560;4.642;2024-01-10T04:34:39;-6.03;99.99
68251;DHT22;55066;51.560;4.642;2024-01-10T04:37:05;-6.03;99.99
68251;DHT22;55066;51.560;4.642;2024-01-10T04:39:34;-6.07;99.99
68251;DHT22;55066;51.560;4.642;2024-01-10T04:42:00;-6.20;99.99
68251;DHT22;55066;51.560;4.642;2024-01-10T04:44:26;-6.16;99.99
68251;DHT22;55066;51.560;4.642;2024-01-10T04:46:51;-6.21;99.99
68251;DHT22;55066;51.560;4.642;2024-01-10T04:49:17;-6.20;99.99
68251;DHT22;55066;51.560;4.642;2024-01-10T04:51:42;-6.14;99.99
68251;DHT22;55066;51.560;4.642;2024-01-10T04:54:08;-6.14;99.99
68251;DHT22;55066;51.560;4.642;2024-01-10T04:56:35;-6.31;99.99
68251;DHT22;55066;51.560;4.642;2024-01-10T04:59:04;-6.28;99.99
68251;DHT22;55066;51.560;4.642;2024-01-10T05:01:30;-6.33;99.99
68251;DHT22;55066;51.560;4.642;2024-01-10T05:03:56;-6.26;99.99
68251;DHT22;55066;51.560;4.642;2024-01-10T05:06:21;-6.28;99.99
68251;DHT22;55066;51.560;4.642;2024-01-10T05:08:47;-6.28;99.99
68251;DHT22;55066;51.560;4.642;2024-01-10T05:11:14;-6.24;99.99
68251;DHT22;55066;51.560;4.642;2024-01-10T05:13:40;-6.11;99.99
68251;DHT22;55066;51.560;4.642;2024-01-10T05:16:06;-6.10;99.99
68251;DHT22;55066;51.560;4.642;2024-01-10T05:18:31;-6.10;99.99
68251;DHT22;55066;51.560;4.642;2024-01-10T05:20:57;-6.13;99.99
68251;DHT22;55066;51.560;4.642;2024-01-10T05:23:23;-6.07;99.99
68251;DHT22;55066;51.560;4.642;2024-01-10T05:25:49;-6.19;99.99
68251;DHT22;55066;51.560;4.642;2024-01-10T05:28:16;-6.13;99.99
68251;DHT22;55066;51.560;4.642;2024-01-10T05:30:42;-6.19;99.99
68251;DHT22;55066;51.560;4.642;2024-01-10T05:33:09;-6.23;99.99
68251;DHT22;55066;51.560;4.642;2024-01-10T05:35:34;-6.21;99.99
68251;DHT22;55066;51.560;4.642;2024-01-10T05:38:01;-6.24;99.99
68251;DHT22;55066;51.560;4.642;2024-01-10T05:40:28;-6.34;99.99
68251;DHT22;55066;51.560;4.642;2024-01-10T05:42:58;-6.33;99.99
68251;DHT22;55066;51.560;4.642;2024-01-10T05:45:27;-6.41;99.99
68251;DHT22;55066;51.560;4.642;2024-01-10T05:47:54;-6.51;99.99
68251;DHT22;55066;51.560;4.642;2024-01-10T05:50:20;-6.61;99.99
68251;DHT22;55066;51.560;4.642;2024-01-10T05:52:49;-6.74;99.99
68251;DHT22;55066;51.560;4.642;2024-01-10T05:55:14;-6.62;99.99
68251;DHT22;55066;51.560;4.642;2024-01-10T05:57:40;-6.57;99.99
68251;DHT22;55066;51.560;4.642;2024-01-10T06:00:06;-6.61;99.99
68251;DHT22;55066;51.560;4.642;2024-01-10T06:02:41;-6.67;99.99
68251;DHT22;55066;51.560;4.642;2024-01-10T06:05:10;-6.67;99.99
68251;DHT22;55066;51.560;4.642;2024-01-10T06:07:40;-6.81;99.99
68251;DHT22;55066;51.560;4.642;2024-01-10T06:10:08;-6.96;99.99
68251;DHT22;55066;51.560;4.642;2024-01-10T06:12:35;-6.89;99.99
68251;DHT22;55066;51.560;4.642;2024-01-10T06:15:01;-6.69;99.99
68251;DHT22;55066;51.560;4.642;2024-01-10T06:17:26;-6.83;99.99
68251;DHT22;55066;51.560;4.642;2024-01-10T06:19:52;-6.79;99.99
68251;DHT22;55066;51.560;4.642;2024-01-10T06:22:17;-6.92;99.99
68251;DHT22;55066;51.560;4.642;2024-01-10T06:24:43;-6.89;99.99
68251;DHT22;55066;51.560;4.642;2024-01-10T06:27:09;-6.75;99.99
68251;DHT22;55066;51.560;4.642;2024-01-10T06:29:36;-6.69;99.99
68251;DHT22;55066;51.560;4.642;2024-01-10T06:32:03;-6.61;99.99
68251;DHT22;55066;51.560;4.642;2024-01-10T06:34:28;-6.54;99.99
68251;DHT22;55066;51.560;4.642;2024-01-10T06:36:54;-6.49;99.99
68251;DHT22;55066;51.560;4.642;2024-01-10T06:39:20;-6.44;99.99
68251;DHT22;55066;51.560;4.642;2024-01-10T06:41:49;-6.48;99.99
68251;DHT22;55066;51.560;4.642;2024-01-10T06:44:16;-6.52;99.99
68251;DHT22;55066;51.560;4.642;2024-01-10T06:46:45;-6.68;99.99
68251;DHT22;55066;51.560;4.642;2024-01-10T06:49:11;-6.74;99.99
68251;DHT22;55066;51.560;4.642;2024-01-10T06:51:37;-6.68;99.99
68251;DHT22;55066;51.560;4.642;2024-01-10T06:54:02;-6.68;99.99
68251;DHT22;55066;51.560;4.642;2024-01-10T06:56:33;-6.65;99.99
68251;DHT22;55066;51.560;4.642;2024-01-10T06:58:59;-6.48;99.99
68251;DHT22;55066;51.560;4.642;2024-01-10T07:01:26;-6.60;99.99
68251;DHT22;55066;51.560;4.642;2024-01-10T07:03:52;-6.76;99.99
68251;DHT22;55066;51.560;4.642;2024-01-10T07:06:20;-6.79;99.99
68251;DHT22;55066;51.560;4.642;2024-01-10T07:08:47;-6.89;99.99
68251;DHT22;55066;51.560;4.642;2024-01-10T07:11:13;-6.85;99.99
68251;DHT22;55066;51.560;4.642;2024-01-10T07:13:40;-6.86;99.99
68251;DHT22;55066;51.560;4.642;2024-01-10T07:16:06;-6.72;99.99
68251;DHT22;55066;51.560;4.642;2024-01-10T07:18:32;-6.82;99.99
68251;DHT22;55066;51.560;4.642;2024-01-10T07:20:58;-6.78;99.99
68251;DHT22;55066;51.560;4.642;2024-01-10T07:23:23;-6.78;99.99
68251;DHT22;55066;51.560;4.642;2024-01-10T07:25:49;-6.95;99.99
68251;DHT22;55066;51.560;4.642;2024-01-10T07:28:16;-6.85;99.99
68251;DHT22;55066;51.560;4.642;2024-01-10T07:30:41;-6.82;99.99
68251;DHT22;55066;51.560;4.642;2024-01-10T07:33:07;-6.85;99.99
68251;DHT22;55066;51.560;4.642;2024-01-10T07:35:33;-6.85;99.99
68251;DHT22;55066;51.560;4.642;2024-01-10T07:37:58;-6.86;99.99
68251;DHT22;55066;51.560;4.642;2024-01-10T07:40:24;-6.82;99.99
68251;DHT22;55066;51.560;4.642;2024-01-10T07:42:50;-6.72;99.99
68251;DHT22;55066;51.560;4.642;2024-01-10T07:45:15;-6.71;99.99
68251;DHT22;55066;51.560;4.642;2024-01-10T07:47:41;-6.76;99.99
68251;DHT22;55066;51.560;4.642;2024-01-10T07:50:08;-6.72;99.99
68251;DHT22;55066;51.560;4.642;2024-01-10T07:52:35;-6.68;99.99
68251;DHT22;55066;51.560;4.642;2024-01-10T07:55:00;-6.57;99.99
68251;DHT22;55066;51.560;4.642;2024-01-10T07:57:27;-6.49;99.99
68251;DHT22;55066;51.560;4.642;2024-01-10T07:59:53;-6.45;99.99
68251;DHT22;55066;51.560;4.642;2024-01-10T08:02:20;-6.62;99.99
68251;DHT22;55066;51.560;4.642;2024-01-10T08:04:45;-6.52;99.99
68251;DHT22;55066;51.560;4.642;2024-01-10T08:07:11;-6.45;99.99
68251;DHT22;55066;51.560;4.642;2024-01-10T08:09:38;-6.49;99.99
68251;DHT22;55066;51.560;4.642;2024-01-10T08:12:04;-6.42;99.99
68251;DHT22;55066;51.560;4.642;2024-01-10T08:14:29;-6.31;99.99
68251;DHT22;55066;51.560;4.642;2024-01-10T08:16:55;-6.26;99.99
68251;DHT22;55066;51.560;4.642;2024-01-10T08:19:27;-6.11;99.99
68251;DHT22;55066;51.560;4.642;2024-01-10T08:21:53;-6.13;99.99
68251;DHT22;55066;51.560;4.642;2024-01-10T08:24:19;-6.07;99.99
68251;DHT22;55066;51.560;4.642;2024-01-10T08:26:47;-6.03;99.99
68251;DHT22;55066;51.560;4.642;2024-01-10T08:29:18;-5.95;99.99
68251;DHT22;55066;51.560;4.642;2024-01-10T08:31:45;-5.90;99.99
68251;DHT22;55066;51.560;4.642;2024-01-10T08:34:11;-5.93;99.99
68251;DHT22;55066;51.560;4.642;2024-01-10T08:36:37;-5.92;99.99
68251;DHT22;55066;51.560;4.642;2024-01-10T08:39:03;-5.89;99.99
68251;DHT22;55066;51.560;4.642;2024-01-10T08:41:29;-5.95;99.99
68251;DHT22;55066;51.560;4.642;2024-01-10T08:43:55;-5.79;99.99
68251;DHT22;55066;51.560;4.642;2024-01-10T08:46:21;-5.81;99.99
68251;DHT22;55066;51.560;4.642;2024-01-10T08:48:47;-5.77;99.99
68251;DHT22;55066;51.560;4.642;2024-01-10T08:51:13;-5.64;99.99
68251;DHT22;55066;51.560;4.642;2024-01-10T08:53:42;-5.55;99.99
68251;DHT22;55066;51.560;4.642;2024-01-10T08:56:08;-5.54;99.99
68251;DHT22;55066;51.560;4.642;2024-01-10T08:58:34;-5.54;99.99
68251;DHT22;55066;51.560;4.642;2024-01-10T09:01:02;-5.57;99.99
68251;DHT22;55066;51.560;4.642;2024-01-10T09:03:28;-5.46;99.84
68251;DHT22;55066;51.560;4.642;2024-01-10T09:05:53;-5.52;99.59
68251;DHT22;55066;51.560;4.642;2024-01-10T09:08:19;-5.38;99.56
68251;DHT22;55066;51.560;4.642;2024-01-10T09:10:44;-5.20;98.86
68251;DHT22;55066;51.560;4.642;2024-01-10T09:13:09;-5.12;98.31
68251;DHT22;55066;51.560;4.642;2024-01-10T09:15:35;-5.12;97.96
68251;DHT22;55066;51.560;4.642;2024-01-10T09:18:00;-5.05;97.26
68251;DHT22;55066;51.560;4.642;2024-01-10T09:20:26;-4.92;96.89
68251;DHT22;55066;51.560;4.642;2024-01-10T09:22:52;-4.88;95.93
68251;DHT22;55066;51.560;4.642;2024-01-10T09:25:18;-4.75;96.05
68251;DHT22;55066;51.560;4.642;2024-01-10T09:27:43;-4.76;95.81
68251;DHT22;55066;51.560;4.642;2024-01-10T09:30:10;-4.75;95.30
68251;DHT22;55066;51.560;4.642;2024-01-10T09:32:36;-4.71;95.27
68251;DHT22;55066;51.560;4.642;2024-01-10T09:35:03;-4.71;95.36
68251;DHT22;55066;51.560;4.642;2024-01-10T09:37:29;-4.62;94.60
68251;DHT22;55066;51.560;4.642;2024-01-10T09:39:55;-4.55;93.99
68251;DHT22;55066;51.560;4.642;2024-01-10T09:42:21;-4.44;94.65
68251;DHT22;55066;51.560;4.642;2024-01-10T09:44:51;-4.47;93.69
68251;DHT22;55066;51.560;4.642;2024-01-10T09:47:17;-4.48;93.66
68251;DHT22;55066;51.560;4.642;2024-01-10T09:49:46;-4.40;94.02
68251;DHT22;55066;51.560;4.642;2024-01-10T09:52:19;-4.33;92.98
68251;DHT22;55066;51.560;4.642;2024-01-10T09:54:55;-4.27;93.08
68251;DHT22;55066;51.560;4.642;2024-01-10T09:57:24;-4.26;93.88
68251;DHT22;55066;51.560;4.642;2024-01-10T09:59:51;-4.21;91.91
68251;DHT22;55066;51.560;4.642;2024-01-10T10:02:18;-4.19;92.70
68251;DHT22;55066;51.560;4.642;2024-01-10T10:05:02;-4.07;92.03
68251;DHT22;55066;51.560;4.642;2024-01-10T10:07:49;-4.07;91.63
68251;DHT22;55066;51.560;4.642;2024-01-10T10:10:16;-4.03;91.30
68251;DHT22;55066;51.560;4.642;2024-01-10T10:12:51;-3.96;91.61
68251;DHT22;55066;51.560;4.642;2024-01-10T10:15:24;-3.85;91.48
68251;DHT22;55066;51.560;4.642;2024-01-10T10:17:54;-3.83;91.68
68251;DHT22;55066;51.560;4.642;2024-01-10T10:20:26;-3.74;91.12
68251;DHT22;55066;51.560;4.642;2024-01-10T10:25:44;-3.70;91.01
68251;DHT22;55066;51.560;4.642;2024-01-10T10:28:10;-3.74;90.58
68251;DHT22;55066;51.560;4.642;2024-01-10T10:30:35;-3.71;90.57
68251;DHT22;55066;51.560;4.642;2024-01-10T10:33:02;-3.67;90.54
68251;DHT22;55066;51.560;4.642;2024-01-10T10:35:28;-3.60;89.80
68251;DHT22;55066;51.560;4.642;2024-01-10T10:37:53;-3.50;89.78
68251;DHT22;55066;51.560;4.642;2024-01-10T10:40:20;-3.40;89.66
68251;DHT22;55066;51.560;4.642;2024-01-10T10:42:48;-3.36;89.42
68251;DHT22;55066;51.560;4.642;2024-01-10T10:45:16;-3.27;89.55
68251;DHT22;55066;51.560;4.642;2024-01-10T10:47:45;-3.26;89.68
68251;DHT22;55066;51.560;4.642;2024-01-10T10:50:21;-3.29;89.21
68251;DHT22;55066;51.560;4.642;2024-01-10T10:52:47;-3.21;89.13
68251;DHT22;55066;51.560;4.642;2024-01-10T10:55:15;-3.17;88.75
68251;DHT22;55066;51.560;4.642;2024-01-10T10:57:47;-3.10;88.52
68251;DHT22;55066;51.560;4.642;2024-01-10T11:00:14;-3.07;88.22
68251;DHT22;55066;51.560;4.642;2024-01-10T11:02:42;-3.05;88.87
68251;DHT22;55066;51.560;4.642;2024-01-10T11:05:09;-2.99;87.96
68251;DHT22;55066;51.560;4.642;2024-01-10T11:07:40;-2.93;87.74
68251;DHT22;55066;51.560;4.642;2024-01-10T11:10:10;-2.88;87.67
68251;DHT22;55066;51.560;4.642;2024-01-10T11:12:44;-2.77;86.97
68251;DHT22;55066;51.560;4.642;2024-01-10T11:21:05;-2.68;87.59
68251;DHT22;55066;51.560;4.642;2024-01-10T11:23:39;-2.64;87.20
68251;DHT22;55066;51.560;4.642;2024-01-10T11:26:07;-2.58;85.79
68251;DHT22;55066;51.560;4.642;2024-01-10T11:28:33;-2.47;86.43
68251;DHT22;55066;51.560;4.642;2024-01-10T11:30:59;-2.36;86.10
68251;DHT22;55066;51.560;4.642;2024-01-10T11:33:30;-2.33;85.35
68251;DHT22;55066;51.560;4.642;2024-01-10T11:36:09;-2.32;85.14
68251;DHT22;55066;51.560;4.642;2024-01-10T11:41:24;-2.27;85.32
68251;DHT22;55066;51.560;4.642;2024-01-10T11:46:42;-2.01;85.22
68251;DHT22;55066;51.560;4.642;2024-01-10T11:49:13;-2.01;84.30
68251;DHT22;55066;51.560;4.642;2024-01-10T11:51:44;-2.09;83.93
68251;DHT22;55066;51.560;4.642;2024-01-10T11:54:10;-2.03;84.39
68251;DHT22;55066;51.560;4.642;2024-01-10T11:56:40;-1.95;84.51
68251;DHT22;55066;51.560;4.642;2024-01-10T11:59:09;-1.86;84.09
68251;DHT22;55066;51.560;4.642;2024-01-10T12:01:38;-1.72;83.93
68251;DHT22;55066;51.560;4.642;2024-01-10T12:04:05;-1.67;84.19
68251;DHT22;55066;51.560;4.642;2024-01-10T12:06:31;-1.70;83.76
68251;DHT22;55066;51.560;4.642;2024-01-10T12:08:57;-1.82;84.30
68251;DHT22;55066;51.560;4.642;2024-01-10T12:11:24;-1.72;83.46
68251;DHT22;55066;51.560;4.642;2024-01-10T12:13:50;-1.72;83.75
68251;DHT22;55066;51.560;4.642;2024-01-10T12:16:16;-1.61;83.82
68251;DHT22;55066;51.560;4.642;2024-01-10T12:18:44;-1.61;83.35
68251;DHT22;55066;51.560;4.642;2024-01-10T12:21:10;-1.48;82.93
68251;DHT22;55066;51.560;4.642;2024-01-10T12:23:38;-1.51;83.89
68251;DHT22;55066;51.560;4.642;2024-01-10T12:26:07;-1.50;82.90
68251;DHT22;55066;51.560;4.642;2024-01-10T12:28:35;-1.51;83.10
68251;DHT22;55066;51.560;4.642;2024-01-10T12:31:01;-1.36;81.72
68251;DHT22;55066;51.560;4.642;2024-01-10T12:33:28;-1.39;82.86
68251;DHT22;55066;51.560;4.642;2024-01-10T12:36:10;-1.33;83.30
68251;DHT22;55066;51.560;4.642;2024-01-10T12:38:37;-1.23;82.21
68251;DHT22;55066;51.560;4.642;2024-01-10T12:41:04;-1.19;82.26
68251;DHT22;55066;51.560;4.642;2024-01-10T12:43:30;-1.09;81.60
68251;DHT22;55066;51.560;4.642;2024-01-10T12:46:06;-1.09;82.35
68251;DHT22;55066;51.560;4.642;2024-01-10T12:48:32;-1.03;82.02
68251;DHT22;55066;51.560;4.642;2024-01-10T12:51:10;-0.99;81.23
68251;DHT22;55066;51.560;4.642;2024-01-10T12:53:37;-1.03;81.38
68251;DHT22;55066;51.560;4.642;2024-01-10T12:56:04;-1.03;81.83
68251;DHT22;55066;51.560;4.642;2024-01-10T12:58:30;-1.05;81.78
68251;DHT22;55066;51.560;4.642;2024-01-10T13:00:56;-0.89;81.63
68251;DHT22;55066;51.560;4.642;2024-01-10T13:03:22;-0.85;81.71
68251;DHT22;55066;51.560;4.642;2024-01-10T13:05:49;-0.82;80.89
68251;DHT22;55066;51.560;4.642;2024-01-10T13:08:14;-0.72;80.69
68251;DHT22;55066;51.560;4.642;2024-01-10T13:10:41;-0.62;80.49
68251;DHT22;55066;51.560;4.642;2024-01-10T13:13:06;-0.74;81.19
68251;DHT22;55066;51.560;4.642;2024-01-10T13:15:32;-0.77;80.93
68251;DHT22;55066;51.560;4.642;2024-01-10T13:17:57;-0.69;80.90
68251;DHT22;55066;51.560;4.642;2024-01-10T13:20:26;-0.68;80.98
68251;DHT22;55066;51.560;4.642;2024-01-10T13:22:53;-0.58;81.22
68251;DHT22;55066;51.560;4.642;2024-01-10T13:25:18;-0.69;81.92
68251;DHT22;55066;51.560;4.642;2024-01-10T13:27:51;-0.64;80.67
68251;DHT22;55066;51.560;4.642;2024-01-10T13:30:17;-0.60;81.45
68251;DHT22;55066;51.560;4.642;2024-01-10T13:32:43;-0.57;80.50
68251;DHT22;55066;51.560;4.642;2024-01-10T13:35:09;-0.51;80.42
68251;DHT22;55066;51.560;4.642;2024-01-10T13:37:34;-0.51;81.63
68251;DHT22;55066;51.560;4.642;2024-01-10T13:40:00;-0.47;81.19
68251;DHT22;55066;51.560;4.642;2024-01-10T13:42:25;-0.36;80.41
68251;DHT22;55066;51.560;4.642;2024-01-10T13:44:51;-0.38;80.35
68251;DHT22;55066;51.560;4.642;2024-01-10T13:47:20;-0.34;79.70
68251;DHT22;55066;51.560;4.642;2024-01-10T13:49:47;-0.36;80.95
68251;DHT22;55066;51.560;4.642;2024-01-10T13:52:13;-0.38;81.06
68251;DHT22;55066;51.560;4.642;2024-01-10T13:54:38;-0.33;80.34
68251;DHT22;55066;51.560;4.642;2024-01-10T13:57:04;-0.36;80.70
68251;DHT22;55066;51.560;4.642;2024-01-10T13:59:29;-0.34;82.20
68251;DHT22;55066;51.560;4.642;2024-01-10T14:01:55;-0.44;83.83
68251;DHT22;55066;51.560;4.642;2024-01-10T14:04:21;-0.47;81.43
68251;DHT22;55066;51.560;4.642;2024-01-10T14:06:48;-0.40;82.61
68251;DHT22;55066;51.560;4.642;2024-01-10T14:09:14;-0.43;82.47
68251;DHT22;55066;51.560;4.642;2024-01-10T14:11:39;-0.49;83.34
68251;DHT22;55066;51.560;4.642;2024-01-10T14:14:05;-0.54;84.71
68251;DHT22;55066;51.560;4.642;2024-01-10T14:16:30;-0.50;83.75
68251;DHT22;55066;51.560;4.642;2024-01-10T14:18:55;-0.51;83.77
68251;DHT22;55066;51.560;4.642;2024-01-10T14:21:22;-0.53;81.95
68251;DHT22;55066;51.560;4.642;2024-01-10T14:23:48;-0.53;82.51
68251;DHT22;55066;51.560;4.642;2024-01-10T14:26:16;-0.50;82.96
68251;DHT22;55066;51.560;4.642;2024-01-10T14:28:43;-0.51;82.15
68251;DHT22;55066;51.560;4.642;2024-01-10T14:31:09;-0.51;82.77
68251;DHT22;55066;51.560;4.642;2024-01-10T14:33:39;-0.54;81.81
68251;DHT22;55066;51.560;4.642;2024-01-10T14:36:05;-0.49;81.21
68251;DHT22;55066;51.560;4.642;2024-01-10T14:38:31;-0.49;82.04
68251;DHT22;55066;51.560;4.642;2024-01-10T14:40:57;-0.53;82.31
68251;DHT22;55066;51.560;4.642;2024-01-10T14:43:24;-0.54;81.46
68251;DHT22;55066;51.560;4.642;2024-01-10T14:45:49;-0.60;81.46
68251;DHT22;55066;51.560;4.642;2024-01-10T14:48:15;-0.57;83.95
68251;DHT22;55066;51.560;4.642;2024-01-10T14:50:43;-0.57;81.13
68251;DHT22;55066;51.560;4.642;2024-01-10T14:53:08;-0.57;81.10
68251;DHT22;55066;51.560;4.642;2024-01-10T14:55:34;-0.64;82.93
68251;DHT22;55066;51.560;4.642;2024-01-10T14:57:59;-0.62;81.57
68251;DHT22;55066;51.560;4.642;2024-01-10T15:00:25;-0.61;82.02
68251;DHT22;55066;51.560;4.642;2024-01-10T15:02:50;-0.65;81.13
68251;DHT22;55066;51.560;4.642;2024-01-10T15:05:16;-0.81;81.98
68251;DHT22;55066;51.560;4.642;2024-01-10T15:07:43;-0.75;84.57
68251;DHT22;55066;51.560;4.642;2024-01-10T15:10:08;-0.74;83.36
68251;DHT22;55066;51.560;4.642;2024-01-10T15:12:34;-0.81;82.78
68251;DHT22;55066;51.560;4.642;2024-01-10T15:14:59;-0.77;83.46
68251;DHT22;55066;51.560;4.642;2024-01-10T15:17:26;-0.81;83.30
68251;DHT22;55066;51.560;4.642;2024-01-10T15:19:52;-0.89;83.19
68251;DHT22;55066;51.560;4.642;2024-01-10T15:22:17;-0.78;83.11
68251;DHT22;55066;51.560;4.642;2024-01-10T15:24:43;-0.96;83.56
68251;DHT22;55066;51.560;4.642;2024-01-10T15:27:09;-1.00;82.45
68251;DHT22;55066;51.560;4.642;2024-01-10T15:29:37;-1.09;82.95
68251;DHT22;55066;51.560;4.642;2024-01-10T15:32:03;-1.17;83.71
68251;DHT22;55066;51.560;4.642;2024-01-10T15:34:29;-1.16;84.07
68251;DHT22;55066;51.560;4.642;2024-01-10T15:36:55;-1.19;84.23
68251;DHT22;55066;51.560;4.642;2024-01-10T15:39:21;-1.29;84.46
68251;DHT22;55066;51.560;4.642;2024-01-10T15:41:50;-1.26;86.52